createdAt,value
2023-02-06T01:20:37.775Z,1.73
2023-02-06T01:49:07.096Z,1.60
2023-02-06T02:43:34.232Z,1.85
2023-02-06T03:32:09.546Z,1.80
2023-02-06T03:42:17.134Z,1.90
2023-02-06T04:03:12.193Z,1.77
2023-02-06T04:07:14.182Z,1.70
2023-02-06T04:13:19.434Z,1.90
2023-02-06T04:24:16.659Z,1.70
2023-02-06T04:45:19.839Z,2.25
2023-02-06T04:50:59.623Z,1.70
2023-02-06T06:03:12.520Z,2.50
2023-02-06T06:05:22.618Z,2.35
2023-02-06T06:07:34.400Z,4.00
2023-02-06T06:09:22.216Z,2.40
2023-02-06T06:30:42.337Z,2.40
2023-02-06T06:38:20.874Z,5.47
2023-02-06T06:42:00.780Z,5.40
2023-02-06T07:08:34.556Z,3.63
2023-02-06T07:12:13.351Z,3.58
2023-02-06T07:13:34.772Z,3.45
2023-02-06T07:14:56.182Z,3.40
2023-02-06T07:17:38.211Z,2.90
2023-02-06T07:20:20.043Z,3.17
2023-02-06T07:21:44.463Z,3.33
2023-02-06T07:23:05.834Z,3.88
2023-02-06T07:24:29.404Z,2.63
2023-02-06T07:27:14.749Z,4.00
2023-02-06T07:28:35.873Z,3.67
2023-02-06T07:29:57.259Z,4.57
2023-02-06T07:31:18.700Z,3.03
2023-02-06T07:34:00.571Z,3.53
2023-02-06T07:35:21.589Z,3.58
2023-02-06T07:36:45.469Z,4.47
2023-02-06T07:38:06.518Z,3.22
2023-02-06T07:39:30.696Z,3.63
2023-02-06T07:42:15.154Z,3.20
2023-02-06T07:43:44.949Z,3.17
2023-02-06T07:45:06.981Z,3.33
2023-02-06T07:46:28.245Z,3.83
2023-02-06T07:47:52.711Z,3.10
2023-02-06T07:49:16.250Z,3.25
2023-02-06T07:50:37.894Z,3.00
2023-02-06T07:52:01.289Z,2.78
2023-02-06T07:53:22.798Z,3.55
2023-02-06T07:54:43.796Z,3.67
2023-02-06T07:56:13.939Z,3.92
2023-02-06T07:57:35.160Z,2.67
2023-02-06T08:00:19.712Z,2.78
2023-02-06T08:01:40.971Z,5.35
2023-02-06T08:03:02.341Z,4.40
2023-02-06T08:04:26.177Z,2.90
2023-02-06T08:05:47.864Z,4.20
2023-02-06T08:07:09.087Z,4.50
2023-02-06T08:09:53.264Z,3.95
2023-02-06T08:11:19.105Z,3.08
2023-02-06T08:12:40.322Z,2.40
2023-02-06T08:14:01.580Z,4.15
2023-02-06T08:15:22.895Z,3.22
2023-02-06T08:18:04.951Z,2.72
2023-02-06T08:19:25.954Z,4.57
2023-02-06T08:20:50.316Z,3.75
2023-02-06T08:22:14.327Z,2.75
2023-02-06T08:24:56.637Z,2.08
2023-02-06T08:27:41.202Z,2.78
2023-02-06T08:29:04.705Z,2.53
2023-02-06T08:30:26.257Z,2.65
2023-02-06T08:31:47.598Z,2.38
2023-02-06T08:33:11.247Z,3.00
2023-02-06T08:34:34.822Z,3.13
2023-02-06T08:35:55.972Z,3.05
2023-02-06T08:37:17.337Z,3.85
2023-02-06T08:38:39.173Z,2.33
2023-02-06T08:40:00.591Z,3.60
2023-02-06T08:41:26.132Z,3.92
2023-02-06T08:42:50.565Z,2.88
2023-02-06T08:44:13.546Z,2.60
2023-02-06T08:45:35.415Z,2.67
2023-02-06T08:47:09.230Z,2.20
2023-02-06T08:48:31.506Z,2.33
2023-02-06T08:49:52.637Z,3.60
2023-02-06T08:51:14.763Z,3.15
2023-02-06T08:52:36.329Z,2.58
2023-02-06T08:54:01.974Z,2.88
2023-02-06T08:55:25.362Z,2.55
2023-02-06T08:56:49.859Z,3.22
2023-02-06T08:58:11.121Z,4.43
2023-02-06T08:59:32.530Z,2.42
2023-02-06T09:00:54.056Z,2.60
2023-02-06T09:02:17.900Z,3.40
2023-02-06T09:03:38.973Z,3.30
2023-02-06T09:05:00.281Z,2.42
2023-02-06T09:06:21.651Z,5.82
2023-02-06T09:07:42.970Z,3.78
2023-02-06T09:09:04.978Z,3.55
2023-02-06T09:10:28.447Z,3.30
2023-02-06T09:11:52.389Z,5.03
2023-02-06T09:13:13.585Z,5.85
2023-02-06T09:15:55.454Z,2.65
2023-02-06T09:18:37.769Z,4.50
2023-02-06T09:20:01.789Z,2.85
2023-02-06T09:21:25.719Z,3.00
2023-02-06T09:22:46.996Z,2.42
2023-02-06T09:24:09.252Z,3.15
2023-02-06T09:25:30.570Z,3.50
2023-02-06T09:28:21.686Z,3.45
2023-02-06T09:31:04.044Z,2.67
2023-02-06T09:32:25.289Z,3.50
2023-02-06T09:33:46.668Z,4.15
2023-02-06T09:35:08.329Z,4.57
2023-02-06T09:36:29.515Z,4.60
2023-02-06T09:37:50.852Z,2.65
2023-02-06T09:39:12.098Z,2.90
2023-02-06T09:40:37.506Z,3.72
2023-02-06T09:42:06.071Z,2.60
2023-02-06T09:43:31.861Z,2.58
2023-02-06T09:45:06.242Z,2.42
2023-02-06T09:46:33.670Z,3.45
2023-02-06T09:47:57.363Z,3.30
2023-02-06T09:49:22.090Z,2.50
2023-02-06T09:50:51.537Z,3.75
2023-02-06T09:52:35.453Z,4.05
2023-02-06T09:54:08.728Z,3.95
2023-02-06T09:55:36.020Z,4.20
2023-02-06T09:57:06.215Z,4.53
2023-02-06T09:58:40.205Z,3.13
2023-02-06T10:00:06.353Z,2.53
2023-02-06T10:01:41.842Z,3.33
2023-02-06T10:03:14.884Z,2.70
2023-02-06T10:04:45.251Z,3.35
2023-02-06T10:06:16.469Z,3.95
2023-02-06T10:08:08.460Z,4.97
2023-02-06T10:09:40.185Z,3.88
2023-02-06T10:11:06.280Z,5.10
2023-02-06T10:12:38.057Z,2.70
2023-02-06T10:14:05.326Z,4.35
2023-02-06T10:15:33.072Z,4.25
2023-02-06T10:17:01.328Z,3.40
2023-02-06T10:18:29.639Z,3.28
2023-02-06T10:19:55.838Z,4.00
2023-02-06T10:21:28.096Z,4.18
2023-02-06T10:23:02.715Z,2.88
2023-02-06T10:24:35.238Z,3.65
2023-02-06T10:26:06.098Z,3.28
2023-02-06T10:27:27.465Z,5.40
2023-02-06T10:28:53.463Z,4.63
2023-02-06T10:30:18.139Z,5.38
2023-02-06T10:31:59.557Z,4.20
2023-02-06T10:33:32.160Z,3.35
2023-02-06T10:35:19.666Z,2.35
2023-02-06T10:36:54.502Z,2.60
2023-02-06T10:38:33.539Z,3.80
2023-02-06T10:40:03.249Z,2.63
2023-02-06T10:41:33.512Z,2.90
2023-02-06T10:43:01.856Z,3.42
2023-02-06T10:44:34.400Z,3.30
2023-02-06T10:46:06.848Z,3.33
2023-02-06T10:47:36.264Z,2.53
2023-02-06T10:49:03.001Z,3.35
2023-02-06T10:50:28.472Z,3.00
2023-02-06T10:51:53.357Z,4.20
2023-02-06T10:53:19.676Z,3.30
2023-02-06T10:54:49.383Z,2.58
2023-02-06T10:56:16.195Z,4.97
2023-02-06T10:57:41.375Z,3.30
2023-02-06T10:59:07.343Z,2.20
2023-02-06T11:00:32.574Z,2.42
2023-02-06T11:02:05.498Z,2.85
2023-02-06T11:03:31.727Z,2.55
2023-02-06T11:05:03.572Z,5.93
2023-02-06T11:06:28.078Z,3.85
2023-02-06T11:07:53.176Z,3.42
2023-02-06T11:09:14.581Z,3.42
2023-02-06T11:10:36.547Z,3.33
2023-02-06T11:12:00.523Z,2.92
2023-02-06T11:13:26.573Z,3.55
2023-02-06T11:14:48.084Z,4.25
2023-02-06T11:16:20.637Z,2.35
2023-02-06T11:17:43.554Z,3.13
2023-02-06T11:19:16.094Z,2.80
2023-02-06T11:20:39.132Z,3.70
2023-02-06T11:22:09.831Z,2.75
2023-02-06T11:23:31.958Z,2.45
2023-02-06T11:25:02.180Z,3.58
2023-02-06T11:26:26.046Z,3.42
2023-02-06T11:27:49.959Z,2.30
2023-02-06T11:29:16.894Z,2.75
2023-02-06T11:30:41.912Z,3.35
2023-02-06T11:32:07.735Z,2.90
2023-02-06T11:33:36.868Z,5.10
2023-02-06T11:36:27.219Z,4.28
2023-02-06T11:37:52.519Z,1.98
2023-02-06T11:39:23.628Z,3.67
2023-02-06T11:40:55.056Z,4.40
2023-02-06T11:42:21.405Z,2.72
2023-02-06T11:43:49.378Z,2.70
2023-02-06T11:45:27.479Z,4.25
2023-02-06T11:46:48.836Z,4.90
2023-02-06T11:48:34.365Z,5.25
2023-02-06T11:49:55.546Z,2.47
2023-02-06T11:51:18.891Z,3.67
2023-02-06T11:52:46.772Z,2.28
2023-02-06T11:54:19.964Z,3.50
2023-02-06T11:55:41.548Z,3.85
2023-02-06T11:57:06.120Z,9.63
2023-02-06T11:58:29.125Z,6.65
2023-02-06T11:59:52.539Z,3.47
2023-02-06T12:01:20.264Z,3.30
2023-02-06T12:02:50.921Z,3.17
2023-02-06T12:04:23.340Z,7.03
2023-02-06T12:05:44.454Z,1.92
2023-02-06T12:07:16.337Z,4.30
2023-02-06T12:08:46.409Z,6.82
2023-02-06T12:10:14.283Z,4.05
2023-02-06T12:11:44.118Z,4.20
2023-02-06T12:13:09.287Z,5.30
2023-02-06T12:14:37.261Z,3.95
2023-02-06T12:16:01.791Z,4.80
2023-02-06T12:17:28.680Z,4.00
2023-02-06T12:18:56.385Z,4.28
2023-02-06T12:20:25.864Z,3.88
2023-02-06T12:21:50.597Z,2.88
2023-02-06T12:23:19.218Z,4.60
2023-02-06T12:26:12.009Z,5.20
2023-02-06T12:27:39.166Z,1.80
2023-02-06T12:29:06.533Z,4.25
2023-02-06T12:30:34.685Z,3.78
2023-02-06T12:32:01.638Z,3.72
2023-02-06T12:33:26.745Z,3.83
2023-02-06T12:34:52.265Z,2.95
2023-02-06T12:36:21.262Z,3.63
2023-02-06T12:37:48.101Z,5.20
2023-02-06T12:39:18.086Z,4.75
2023-02-06T12:40:46.336Z,4.18
2023-02-06T12:42:30.144Z,5.43
2023-02-06T12:43:58.323Z,2.50
2023-02-06T12:45:31.956Z,2.85
2023-02-06T12:47:00.700Z,2.15
2023-02-06T12:48:26.058Z,2.92
2023-02-06T12:49:55.762Z,2.47
2023-02-06T12:51:27.436Z,2.67
2023-02-06T12:52:58.765Z,4.70
2023-02-06T12:54:28.585Z,3.17
2023-02-06T12:56:00.627Z,2.50
2023-02-06T12:57:25.253Z,2.85
2023-02-06T12:58:56.295Z,3.40
2023-02-06T13:01:56.561Z,3.15
2023-02-06T13:03:33.127Z,3.35
2023-02-06T13:04:57.684Z,1.63
2023-02-06T13:06:25.131Z,2.08
2023-02-06T13:07:50.066Z,2.03
2023-02-06T13:09:20.212Z,2.00
2023-02-06T13:10:42.889Z,2.45
2023-02-06T13:12:12.038Z,2.17
2023-02-06T13:13:37.139Z,2.10
2023-02-06T13:15:01.572Z,2.65
2023-02-06T13:16:37.480Z,3.25
2023-02-06T13:18:00.749Z,3.10
2023-02-06T13:19:30.925Z,1.88
2023-02-06T13:21:14.434Z,2.17
2023-02-06T13:22:44.462Z,2.60
2023-02-06T13:24:18.111Z,1.90
2023-02-06T13:25:48.844Z,1.98
2023-02-06T13:27:15.011Z,3.03
2023-02-06T13:28:56.142Z,5.35
2023-02-06T13:30:49.166Z,2.15
2023-02-06T13:32:46.126Z,1.98
2023-02-06T13:34:15.820Z,2.92
2023-02-06T13:35:54.793Z,3.17
2023-02-06T13:37:32.590Z,3.10
2023-02-06T13:39:13.515Z,2.10
2023-02-06T13:40:37.313Z,2.95
2023-02-06T13:42:22.666Z,1.90
2023-02-06T13:43:49.417Z,3.05
2023-02-06T13:45:21.228Z,3.38
2023-02-06T13:47:16.567Z,2.40
2023-02-06T13:48:54.200Z,4.60
2023-02-06T13:50:50.194Z,1.80
2023-02-06T13:52:18.929Z,2.28
2023-02-06T13:54:15.295Z,2.10
2023-02-06T13:55:53.674Z,1.90
2023-02-06T13:57:25.348Z,2.75
2023-02-06T13:58:50.584Z,1.88
2023-02-06T14:00:17.689Z,2.50
2023-02-06T14:01:41.572Z,2.05
2023-02-06T14:03:12.165Z,1.90
2023-02-06T14:04:37.923Z,4.38
2023-02-06T14:06:07.353Z,1.55
2023-02-06T14:07:53.243Z,2.25
2023-02-06T14:09:36.254Z,2.15
2023-02-06T14:11:25.329Z,3.90
2023-02-06T14:12:58.723Z,2.35
2023-02-06T14:14:34.804Z,2.30
2023-02-06T14:16:08.898Z,2.17
2023-02-06T14:17:43.938Z,2.15
2023-02-06T14:19:17.966Z,2.05
2023-02-06T14:20:49.645Z,3.10
2023-02-06T14:22:21.608Z,1.80
2023-02-06T14:23:59.917Z,2.63
2023-02-06T14:25:36.430Z,1.60
2023-02-06T14:27:18.372Z,1.90
2023-02-06T14:28:49.637Z,2.72
2023-02-06T14:30:23.677Z,1.80
2023-02-06T14:32:05.620Z,2.15
2023-02-06T14:33:54.459Z,1.70
2023-02-06T14:35:34.271Z,2.03
2023-02-06T14:37:09.090Z,1.65
2023-02-06T14:38:52.458Z,2.20
2023-02-06T14:40:21.363Z,1.73
2023-02-06T14:41:44.745Z,1.95
2023-02-06T14:43:15.118Z,1.77
2023-02-06T14:44:41.997Z,2.55
2023-02-06T14:46:08.623Z,1.60
2023-02-06T14:47:33.421Z,1.90
2023-02-06T14:48:56.931Z,2.92
2023-02-06T14:50:21.443Z,1.70
2023-02-06T14:51:50.317Z,1.90
2023-02-06T14:53:21.839Z,1.60
2023-02-06T14:54:42.943Z,1.70
2023-02-06T14:56:17.364Z,2.33
2023-02-06T14:57:44.770Z,2.33
2023-02-06T14:59:16.202Z,1.55
2023-02-06T15:02:13.249Z,2.10
2023-02-06T15:03:34.602Z,2.30
2023-02-06T15:04:57.061Z,2.28
2023-02-06T15:06:31.368Z,1.58
2023-02-06T15:07:58.170Z,1.73
2023-02-06T15:09:24.161Z,2.38
2023-02-06T15:10:46.245Z,5.55
2023-02-06T15:12:18.235Z,1.60
2023-02-06T15:13:39.570Z,1.92
2023-02-06T15:15:17.523Z,4.95
2023-02-06T15:16:48.588Z,1.85
2023-02-06T15:18:17.441Z,1.77
2023-02-06T15:19:40.816Z,1.65
2023-02-06T15:21:04.387Z,1.50
2023-02-06T15:22:28.529Z,2.42
2023-02-06T15:24:05.074Z,2.25
2023-02-06T15:25:41.958Z,3.50
2023-02-06T15:27:11.226Z,2.38
2023-02-06T15:28:34.081Z,1.55
2023-02-06T15:29:56.215Z,3.75
2023-02-06T15:31:21.576Z,5.22
2023-02-06T15:32:49.869Z,2.10
2023-02-06T15:34:17.374Z,1.70
2023-02-06T15:35:47.880Z,2.70
2023-02-06T15:37:23.685Z,2.90
2023-02-06T15:38:48.141Z,1.30
2023-02-06T15:40:16.742Z,1.65
2023-02-06T15:41:40.752Z,2.28
2023-02-06T15:43:02.689Z,1.70
2023-02-06T15:44:36.124Z,3.03
2023-02-06T15:46:00.671Z,1.42
2023-02-06T15:47:27.259Z,1.55
2023-02-06T15:48:53.384Z,1.63
2023-02-06T15:50:18.225Z,3.00
2023-02-06T15:51:48.792Z,1.33
2023-02-06T15:53:28.275Z,1.77
2023-02-06T15:54:57.949Z,2.40
2023-02-06T15:56:24.003Z,1.65
2023-02-06T15:57:45.413Z,1.50
2023-02-06T15:59:15.352Z,1.88
2023-02-06T16:00:37.623Z,1.50
2023-02-06T16:01:59.588Z,2.13
2023-02-06T16:03:25.891Z,1.63
2023-02-06T16:04:51.788Z,2.15
2023-02-06T16:06:17.245Z,4.28
2023-02-06T16:07:38.317Z,5.25
2023-02-06T16:09:02.995Z,4.05
2023-02-06T16:10:27.177Z,3.17
2023-02-06T16:11:53.298Z,4.15
2023-02-06T16:13:19.673Z,5.00
2023-02-06T16:14:51.374Z,3.85
2023-02-06T16:16:21.206Z,2.35
2023-02-06T16:17:42.688Z,2.55
2023-02-06T16:19:36.522Z,1.73
2023-02-06T16:21:12.759Z,2.38
2023-02-06T16:22:36.057Z,1.98
2023-02-06T16:24:14.079Z,2.60
2023-02-06T16:25:38.040Z,2.47
2023-02-06T16:27:15.330Z,1.90
2023-02-06T16:28:45.633Z,2.58
2023-02-06T16:30:23.100Z,2.13
2023-02-06T16:31:45.132Z,1.60
2023-02-06T16:33:18.085Z,1.90
2023-02-06T16:34:43.081Z,3.00
2023-02-06T16:36:09.716Z,1.40
2023-02-06T16:37:32.816Z,2.63
2023-02-06T16:39:03.566Z,1.63
2023-02-06T16:40:25.333Z,2.75
2023-02-06T16:43:11.553Z,2.35
2023-02-06T16:44:44.088Z,3.05
2023-02-06T16:46:08.294Z,1.67
2023-02-06T16:47:32.720Z,1.65
2023-02-06T16:48:54.990Z,1.83
2023-02-06T16:50:21.819Z,4.00
2023-02-06T16:51:45.385Z,2.33
2023-02-06T16:53:17.963Z,2.80
2023-02-06T16:54:43.782Z,1.77
2023-02-06T16:56:05.534Z,1.85
2023-02-06T16:57:32.271Z,1.92
2023-02-06T16:58:53.478Z,3.08
2023-02-06T17:00:21.233Z,4.85
2023-02-06T17:01:42.655Z,1.50
2023-02-06T17:04:24.773Z,2.90
2023-02-06T17:07:15.112Z,2.30
2023-02-06T17:08:38.781Z,2.92
2023-02-06T17:10:02.614Z,4.32
2023-02-06T17:11:24.365Z,5.35
2023-02-06T17:12:46.817Z,5.22
2023-02-06T17:14:10.167Z,5.15
2023-02-06T17:15:31.755Z,5.40
2023-02-06T17:16:54.434Z,7.90
2023-02-06T17:18:18.224Z,8.00
2023-02-06T17:19:40.385Z,7.05
2023-02-06T17:21:07.809Z,8.70
2023-02-06T17:22:29.062Z,10.77
2023-02-06T17:23:51.187Z,8.68
2023-02-06T17:25:14.470Z,15.50
2023-02-06T17:27:59.082Z,17.05
2023-02-06T17:29:20.607Z,32.72
2023-02-06T17:32:05.471Z,31.58
2023-02-06T17:33:29.236Z,37.92
2023-02-06T17:34:51.466Z,30.73
2023-02-06T17:36:20.510Z,25.05
2023-02-06T17:37:41.524Z,23.20
2023-02-06T17:39:02.941Z,22.77
2023-02-06T17:41:46.723Z,17.05
2023-02-06T17:43:08.018Z,14.63
2023-02-06T17:45:49.881Z,13.75
2023-02-06T17:48:36.462Z,7.30
2023-02-06T17:49:58.294Z,11.50
2023-02-06T17:51:24.426Z,11.73
2023-02-06T17:52:45.723Z,5.85
2023-02-06T17:54:10.702Z,5.40
2023-02-06T17:55:32.792Z,7.07
2023-02-06T17:56:56.935Z,6.80
2023-02-06T17:59:39.112Z,5.15
2023-02-06T18:01:00.908Z,6.68
2023-02-06T18:02:25.093Z,4.30
2023-02-06T18:03:49.803Z,6.75
2023-02-06T18:05:11.581Z,5.55
2023-02-06T18:06:35.250Z,6.15
2023-02-06T18:07:56.446Z,6.55
2023-02-06T18:09:20.389Z,7.82
2023-02-06T18:10:41.857Z,6.88
2023-02-06T18:12:05.699Z,5.53
2023-02-06T18:13:26.753Z,5.85
2023-02-06T18:14:50.543Z,3.42
2023-02-06T18:16:16.016Z,6.07
2023-02-06T18:17:39.721Z,4.22
2023-02-06T18:19:01.363Z,5.95
2023-02-06T18:20:22.535Z,6.55
2023-02-06T18:21:46.355Z,4.43
2023-02-06T18:23:10.143Z,6.15
2023-02-06T18:24:33.467Z,8.57
2023-02-06T18:26:01.361Z,10.95
2023-02-06T18:27:22.604Z,9.90
2023-02-06T18:28:46.412Z,9.05
2023-02-06T18:30:09.536Z,9.77
2023-02-06T18:31:35.773Z,7.57
2023-02-06T18:32:56.925Z,7.80
2023-02-06T18:34:20.421Z,7.20
2023-02-06T18:35:44.624Z,7.93
2023-02-06T18:37:08.716Z,6.22
2023-02-06T18:38:29.893Z,5.95
2023-02-06T18:39:55.156Z,8.20
2023-02-06T18:41:16.748Z,5.80
2023-02-06T18:42:40.270Z,5.28
2023-02-06T18:45:24.246Z,5.93
2023-02-06T18:46:48.312Z,5.07
2023-02-06T18:48:11.716Z,5.90
2023-02-06T18:49:34.260Z,4.95
2023-02-06T18:50:57.508Z,5.63
2023-02-06T18:52:24.219Z,4.32
2023-02-06T18:53:47.710Z,5.43
2023-02-06T18:55:09.144Z,6.47
2023-02-06T18:56:32.421Z,5.45
2023-02-06T18:57:56.612Z,5.20
2023-02-06T18:59:20.863Z,6.00
2023-02-06T19:02:02.853Z,3.50
2023-02-06T19:03:26.598Z,3.78
2023-02-06T19:06:13.541Z,3.42
2023-02-06T19:07:37.624Z,6.10
2023-02-06T19:09:01.634Z,3.10
2023-02-06T19:10:25.048Z,3.28
2023-02-06T19:11:48.999Z,3.15
2023-02-06T19:13:10.182Z,3.85
2023-02-06T19:16:01.757Z,3.80
2023-02-06T19:17:26.445Z,6.38
2023-02-06T19:18:49.197Z,8.82
2023-02-06T19:20:12.369Z,4.07
2023-02-06T19:21:36.422Z,10.15
2023-02-06T19:22:59.993Z,3.35
2023-02-06T19:24:21.314Z,4.20
2023-02-06T19:25:42.482Z,4.15
2023-02-06T19:27:04.122Z,5.40
2023-02-06T19:28:28.117Z,3.97
2023-02-06T19:29:52.433Z,2.70
2023-02-06T19:32:37.024Z,6.68
2023-02-06T19:34:00.958Z,3.90
2023-02-06T19:35:24.512Z,4.43
2023-02-06T19:36:45.976Z,4.72
2023-02-06T19:38:12.223Z,3.00
2023-02-06T19:39:33.935Z,9.15
2023-02-06T19:40:54.991Z,5.15
2023-02-06T19:42:16.306Z,3.67
2023-02-06T19:43:38.223Z,4.18
2023-02-06T19:45:01.925Z,5.10
2023-02-06T19:46:27.098Z,4.32
2023-02-06T19:47:48.516Z,6.18
2023-02-06T19:50:33.662Z,4.30
2023-02-06T19:51:57.150Z,4.32
2023-02-06T19:53:23.156Z,7.03
2023-02-06T19:54:44.636Z,3.47
2023-02-06T19:56:08.091Z,6.55
2023-02-06T19:57:32.010Z,6.30
2023-02-06T20:00:15.592Z,3.95
2023-02-06T20:01:36.683Z,2.97
2023-02-06T20:03:00.752Z,5.25
2023-02-06T20:04:23.979Z,5.30
2023-02-06T20:05:47.264Z,5.43
2023-02-06T20:08:34.276Z,5.28
2023-02-06T20:09:55.203Z,3.60
2023-02-06T20:11:19.493Z,4.53
2023-02-06T20:12:40.873Z,5.13
2023-02-06T20:15:23.148Z,4.50
2023-02-06T20:16:47.702Z,3.20
2023-02-06T20:18:09.169Z,4.05
2023-02-06T20:19:31.188Z,3.17
2023-02-06T20:20:52.197Z,2.97
2023-02-06T20:22:15.722Z,5.43
2023-02-06T20:23:39.585Z,2.90
2023-02-06T20:25:00.885Z,6.30
2023-02-06T20:26:27.746Z,7.65
2023-02-06T20:27:49.143Z,9.50
2023-02-06T20:29:18.626Z,7.50
2023-02-06T20:30:40.519Z,5.45
2023-02-06T20:32:04.345Z,6.63
2023-02-06T20:33:25.555Z,6.10
2023-02-06T20:34:46.672Z,3.97
2023-02-06T20:37:29.872Z,5.30
2023-02-06T20:38:55.811Z,3.95
2023-02-06T20:40:19.163Z,5.18
2023-02-06T20:41:41.152Z,4.50
2023-02-06T20:43:02.435Z,3.53
2023-02-06T20:44:23.861Z,3.45
2023-02-06T20:45:45.020Z,3.47
2023-02-06T20:47:06.264Z,4.53
2023-02-06T20:49:48.540Z,4.93
2023-02-06T20:51:13.523Z,5.38
2023-02-06T20:52:35.252Z,4.47
2023-02-06T20:53:59.278Z,3.28
2023-02-06T20:55:20.621Z,3.38
2023-02-06T20:58:02.780Z,3.50
2023-02-06T20:59:26.940Z,3.88
2023-02-06T21:00:48.398Z,4.63
2023-02-06T21:02:10.077Z,3.75
2023-02-06T21:03:31.421Z,3.97
2023-02-06T21:04:52.794Z,2.78
2023-02-06T21:07:37.220Z,4.43
2023-02-06T21:09:01.178Z,3.50
2023-02-06T21:10:22.818Z,3.55
2023-02-06T21:11:48.206Z,3.22
2023-02-06T21:13:11.806Z,3.42
2023-02-06T21:15:56.001Z,3.20
2023-02-06T21:17:17.396Z,5.13
2023-02-06T21:18:41.743Z,3.38
2023-02-06T21:20:03.407Z,3.30
2023-02-06T21:21:25.746Z,4.47
2023-02-06T21:22:47.142Z,3.38
2023-02-06T21:24:13.660Z,3.90
2023-02-06T21:25:37.119Z,3.15
2023-02-06T21:26:58.290Z,3.03
2023-02-06T21:28:20.384Z,3.50
2023-02-06T21:29:43.583Z,3.17
2023-02-06T21:31:07.116Z,3.42
2023-02-06T21:32:28.499Z,3.00
2023-02-06T21:33:50.736Z,2.75
2023-02-06T21:35:11.790Z,3.00
2023-02-06T21:36:38.150Z,3.03
2023-02-06T21:38:01.452Z,4.05
2023-02-06T21:39:26.017Z,3.42
2023-02-06T21:40:47.359Z,3.10
2023-02-06T21:42:11.190Z,3.15
2023-02-06T21:43:32.783Z,3.75
2023-02-06T21:44:54.292Z,3.65
2023-02-06T21:46:15.585Z,3.53
2023-02-06T21:47:39.142Z,3.38
2023-02-06T21:49:03.171Z,2.95
2023-02-06T21:50:24.244Z,3.45
2023-02-06T21:53:07.748Z,3.88
2023-02-06T21:54:34.063Z,3.10
2023-02-06T21:55:55.456Z,4.18
2023-02-06T21:57:16.671Z,3.10
2023-02-06T21:59:58.919Z,3.22
2023-02-06T22:01:22.402Z,3.28
2023-02-06T22:02:45.953Z,3.42
2023-02-06T22:04:10.723Z,3.47
2023-02-06T22:05:32.176Z,3.35
2023-02-06T22:08:16.161Z,3.22
2023-02-06T22:11:00.609Z,3.08
2023-02-06T22:12:21.705Z,3.13
2023-02-06T22:13:43.671Z,3.40
2023-02-06T22:15:06.707Z,3.60
2023-02-06T22:16:28.733Z,3.40
2023-02-06T22:17:49.948Z,4.03
2023-02-06T22:19:13.717Z,4.05
2023-02-06T22:20:35.114Z,3.10
2023-02-06T22:21:58.458Z,3.63
2023-02-06T22:23:21.919Z,3.35
2023-02-06T22:26:09.865Z,3.38
2023-02-06T22:27:32.264Z,3.05
2023-02-06T22:28:53.999Z,3.33
2023-02-06T22:30:18.516Z,3.20
2023-02-06T22:31:40.864Z,4.38
2023-02-06T22:33:02.039Z,3.17
2023-02-06T22:34:23.588Z,3.08
2023-02-06T22:35:44.713Z,3.83
2023-02-06T22:37:05.753Z,3.08
2023-02-06T22:38:29.293Z,3.20
2023-02-06T22:39:57.328Z,3.13
2023-02-06T22:41:21.011Z,2.92
2023-02-06T22:42:42.194Z,3.42
2023-02-06T22:44:03.658Z,2.60
2023-02-06T22:45:24.918Z,3.30
2023-02-06T22:48:07.838Z,2.90
2023-02-06T22:49:29.411Z,3.10
2023-02-06T22:50:50.988Z,3.40
2023-02-06T22:52:14.225Z,3.53
2023-02-06T22:53:36.667Z,3.75
2023-02-06T22:55:00.689Z,3.38
2023-02-06T22:56:24.535Z,4.07
2023-02-06T22:57:48.081Z,3.28
2023-02-06T22:59:11.554Z,3.38
2023-02-06T23:00:32.662Z,3.75
2023-02-06T23:01:57.058Z,2.65
2023-02-06T23:03:20.735Z,3.83
2023-02-06T23:06:03.097Z,4.80
2023-02-06T23:07:24.184Z,3.10
2023-02-06T23:10:09.436Z,3.20
2023-02-06T23:11:30.968Z,3.25
2023-02-06T23:12:54.637Z,3.25
2023-02-06T23:14:20.010Z,3.55
2023-02-06T23:15:44.060Z,3.13
2023-02-06T23:17:07.718Z,3.53
2023-02-06T23:18:29.604Z,3.05
2023-02-06T23:19:53.542Z,3.25
2023-02-06T23:21:19.077Z,2.83
2023-02-06T23:22:40.288Z,2.80
2023-02-06T23:24:05.106Z,3.45
2023-02-06T23:25:29.055Z,3.33
2023-02-06T23:26:53.181Z,3.40
2023-02-06T23:28:16.687Z,3.20
2023-02-06T23:29:40.362Z,3.15
2023-02-06T23:31:04.793Z,3.10
2023-02-06T23:32:26.248Z,2.78
2023-02-06T23:35:10.630Z,3.25
2023-02-06T23:36:31.638Z,3.92
2023-02-06T23:37:55.326Z,3.30
2023-02-06T23:39:19.255Z,3.70
2023-02-06T23:40:43.194Z,3.15
2023-02-06T23:42:04.673Z,4.82
2023-02-06T23:44:46.585Z,3.60
2023-02-06T23:46:11.711Z,3.30
2023-02-06T23:47:35.490Z,3.22
2023-02-06T23:48:59.821Z,3.70
2023-02-06T23:50:24.479Z,3.35
2023-02-06T23:51:46.033Z,3.35
2023-02-06T23:53:07.243Z,3.22
2023-02-06T23:54:30.441Z,3.72
2023-02-06T23:55:57.123Z,3.65
2023-02-06T23:57:18.302Z,3.17
2023-02-06T23:58:39.476Z,3.40
